createdAt,value
2018-11-02T00:01:52.074Z,4.0
2018-11-02T00:12:07.148Z,3.7
2018-11-02T00:22:19.800Z,4.0
2018-11-02T00:33:00.464Z,5.4
2018-11-02T00:43:15.004Z,3.0
2018-11-02T00:53:27.891Z,5.4
2018-11-02T01:03:41.066Z,3.2
2018-11-02T01:14:08.114Z,5.1
2018-11-02T01:24:53.434Z,3.5
2018-11-02T01:35:41.373Z,3.6
2018-11-02T01:45:53.719Z,4.1
2018-11-02T01:56:06.109Z,2.4
2018-11-02T02:06:19.909Z,2.7
2018-11-02T02:16:32.629Z,2.5
2018-11-02T02:26:45.585Z,3.5
2018-11-02T02:36:57.795Z,2.4
2018-11-02T02:47:13.145Z,1.8
2018-11-02T02:57:58.940Z,3.9
2018-11-02T03:08:45.743Z,3.8
2018-11-02T03:18:59.943Z,2.3
2018-11-02T03:29:14.394Z,4.4
2018-11-02T03:39:29.001Z,3.8
2018-11-02T03:49:43.304Z,4.9
2018-11-02T04:00:30.349Z,4.9
2018-11-02T04:12:01.074Z,6.1
2018-11-02T04:22:14.683Z,6.3
2018-11-02T04:33:01.015Z,7.6
2018-11-02T04:43:13.263Z,6.0
2018-11-02T04:57:02.659Z,5.6
2018-11-02T05:19:33.373Z,3.1
2018-11-02T05:30:18.893Z,3.1
2018-11-02T05:40:32.888Z,2.8
2018-11-02T05:50:45.237Z,1.7
2018-11-02T06:01:02.852Z,1.3
2018-11-02T06:11:16.794Z,2.6
2018-11-02T06:21:29.153Z,1.3
2018-11-02T06:44:45.809Z,2.0
2018-11-02T06:54:58.183Z,3.2
2018-11-02T07:05:44.145Z,3.4
2018-11-02T07:15:56.309Z,1.9
2018-11-02T07:26:08.821Z,2.1
2018-11-02T07:36:20.653Z,1.8
2018-11-02T07:46:33.527Z,2.3
2018-11-02T07:56:45.619Z,1.5
2018-11-02T08:07:31.280Z,2.5
2018-11-02T08:18:17.096Z,3.6
2018-11-02T08:28:31.249Z,3.7
2018-11-02T08:39:00.480Z,3.8
2018-11-02T08:49:23.269Z,3.6
2018-11-02T08:59:53.898Z,3.7
2018-11-02T09:10:18.793Z,2.8
2018-11-02T09:20:53.670Z,3.1
2018-11-02T09:31:08.218Z,2.5
2018-11-02T09:41:22.501Z,2.7
2018-11-02T09:52:14.683Z,1.6
2018-11-02T10:03:00.387Z,2.6
2018-11-02T10:13:38.033Z,2.4
2018-11-02T10:26:54.127Z,2.3
2018-11-02T10:40:53.582Z,2.6
2018-11-02T10:53:06.750Z,2.9
2018-11-02T11:33:39.401Z,1.8
2018-11-02T11:57:27.907Z,2.0
2018-11-02T12:07:44.942Z,1.9
2018-11-02T12:18:36.362Z,1.7
2018-11-02T12:28:53.355Z,1.9
2018-11-02T13:03:39.708Z,1.8
2018-11-02T13:33:55.044Z,3.1
2018-11-02T13:44:12.920Z,2.2
2018-11-02T14:08:02.369Z,2.4
2018-11-02T14:18:53.069Z,1.3
2018-11-02T15:44:02.568Z,0.9
2018-11-02T17:00:55.844Z,2.1
2018-11-02T17:11:44.080Z,1.5
2018-11-02T18:25:55.369Z,5.7
2018-11-02T18:36:13.799Z,4.0
2018-11-02T18:46:30.725Z,2.5
2018-11-02T18:56:47.006Z,2.6
2018-11-02T19:07:37.749Z,5.0
2018-11-02T19:18:30.848Z,5.1
2018-11-02T19:29:24.933Z,4.7
2018-11-02T19:42:34.890Z,6.5
2018-11-02T19:53:26.408Z,4.2
2018-11-02T20:04:22.372Z,5.5
2018-11-02T20:16:59.689Z,5.8
2018-11-02T20:41:36.036Z,3.7
2018-11-02T20:52:27.659Z,3.5
2018-11-02T21:02:42.690Z,3.7
2018-11-02T21:13:34.326Z,4.0
2018-11-02T21:23:48.480Z,2.6
2018-11-02T21:34:52.765Z,5.0
2018-11-02T21:45:40.629Z,4.4
2018-11-02T21:55:54.118Z,2.4
2018-11-02T22:06:11.247Z,3.0
2018-11-02T22:16:27.966Z,2.5
2018-11-02T22:44:15.517Z,4.0
2018-11-02T22:54:51.564Z,2.3
2018-11-02T23:05:05.425Z,2.7
2018-11-02T23:15:31.330Z,1.9
2018-11-02T23:25:45.705Z,2.6
2018-11-02T23:36:46.751Z,3.9
2018-11-02T23:47:10.847Z,3.2
2018-11-02T23:58:00.893Z,4.5
